sensor_id;sensor_type;location;lat;lon;timestamp;P1;durP1;ratioP1;P2;durP2;ratioP2
4686;SDS011;2357;47.316;-1.348;2023-02-01T00:01:22;20.27;;;5.80;;
4686;SDS011;2357;47.316;-1.348;2023-02-01T00:03:47;11.93;;;4.80;;
4686;SDS011;2357;47.316;-1.348;2023-02-01T00:06:13;14.53;;;4.70;;
4686;SDS011;2357;47.316;-1.348;2023-02-01T00:08:39;18.67;;;6.13;;
4686;SDS011;2357;47.316;-1.348;2023-02-01T00:11:05;13.03;;;4.73;;
4686;SDS011;2357;47.316;-1.348;2023-02-01T00:13:33;17.20;;;5.67;;
4686;SDS011;2357;47.316;-1.348;2023-02-01T00:16:10;22.30;;;5.70;;
4686;SDS011;2357;47.316;-1.348;2023-02-01T00:18:37;14.80;;;4.50;;
4686;SDS011;2357;47.316;-1.348;2023-02-01T00:21:03;13.00;;;4.70;;
4686;SDS011;2357;47.316;-1.348;2023-02-01T00:23:32;23.60;;;6.77;;
4686;SDS011;2357;47.316;-1.348;2023-02-01T00:26:05;17.67;;;5.90;;
4686;SDS011;2357;47.316;-1.348;2023-02-01T00:28:32;21.13;;;5.37;;
4686;SDS011;2357;47.316;-1.348;2023-02-01T00:31:02;11.63;;;4.70;;
4686;SDS011;2357;47.316;-1.348;2023-02-01T00:33:29;13.47;;;5.47;;
4686;SDS011;2357;47.316;-1.348;2023-02-01T00:35:57;16.23;;;5.73;;
4686;SDS011;2357;47.316;-1.348;2023-02-01T00:38:23;19.90;;;6.97;;
4686;SDS011;2357;47.316;-1.348;2023-02-01T00:40:50;18.17;;;6.10;;
4686;SDS011;2357;47.316;-1.348;2023-02-01T00:43:15;9.23;;;4.83;;
4686;SDS011;2357;47.316;-1.348;2023-02-01T00:45:41;19.83;;;5.93;;
4686;SDS011;2357;47.316;-1.348;2023-02-01T00:48:07;13.93;;;5.90;;
4686;SDS011;2357;47.316;-1.348;2023-02-01T00:50:32;16.77;;;5.67;;
4686;SDS011;2357;47.316;-1.348;2023-02-01T00:52:58;15.87;;;4.37;;
4686;SDS011;2357;47.316;-1.348;2023-02-01T00:55:24;14.33;;;5.20;;
4686;SDS011;2357;47.316;-1.348;2023-02-01T00:57:50;10.57;;;5.40;;
4686;SDS011;2357;47.316;-1.348;2023-02-01T01:00:16;13.87;;;4.50;;
4686;SDS011;2357;47.316;-1.348;2023-02-01T01:02:42;15.43;;;5.73;;
4686;SDS011;2357;47.316;-1.348;2023-02-01T01:05:07;15.43;;;5.37;;
4686;SDS011;2357;47.316;-1.348;2023-02-01T01:07:33;22.60;;;6.67;;
4686;SDS011;2357;47.316;-1.348;2023-02-01T01:09:59;10.40;;;5.70;;
4686;SDS011;2357;47.316;-1.348;2023-02-01T01:12:25;8.20;;;5.40;;
4686;SDS011;2357;47.316;-1.348;2023-02-01T01:14:50;14.50;;;4.37;;
4686;SDS011;2357;47.316;-1.348;2023-02-01T01:17:16;12.50;;;5.33;;
4686;SDS011;2357;47.316;-1.348;2023-02-01T01:19:42;16.43;;;6.27;;
4686;SDS011;2357;47.316;-1.348;2023-02-01T01:22:07;18.70;;;5.90;;
4686;SDS011;2357;47.316;-1.348;2023-02-01T01:24:33;15.80;;;5.53;;
4686;SDS011;2357;47.316;-1.348;2023-02-01T01:26:58;14.43;;;6.77;;
4686;SDS011;2357;47.316;-1.348;2023-02-01T01:29:24;8.07;;;5.17;;
4686;SDS011;2357;47.316;-1.348;2023-02-01T01:31:50;13.80;;;5.97;;
4686;SDS011;2357;47.316;-1.348;2023-02-01T01:34:15;16.63;;;5.50;;
4686;SDS011;2357;47.316;-1.348;2023-02-01T01:36:41;17.90;;;6.33;;
4686;SDS011;2357;47.316;-1.348;2023-02-01T01:39:07;14.70;;;6.20;;
4686;SDS011;2357;47.316;-1.348;2023-02-01T01:41:32;16.27;;;6.03;;
4686;SDS011;2357;47.316;-1.348;2023-02-01T01:46:25;16.50;;;5.63;;
4686;SDS011;2357;47.316;-1.348;2023-02-01T01:49:04;13.30;;;6.53;;
4686;SDS011;2357;47.316;-1.348;2023-02-01T01:51:38;14.47;;;4.40;;
4686;SDS011;2357;47.316;-1.348;2023-02-01T01:54:11;19.23;;;5.83;;
4686;SDS011;2357;47.316;-1.348;2023-02-01T01:56:53;16.63;;;4.40;;
4686;SDS011;2357;47.316;-1.348;2023-02-01T01:59:22;15.63;;;6.27;;
4686;SDS011;2357;47.316;-1.348;2023-02-01T02:01:49;12.10;;;4.60;;
4686;SDS011;2357;47.316;-1.348;2023-02-01T02:04:15;11.60;;;4.40;;
4686;SDS011;2357;47.316;-1.348;2023-02-01T02:06:50;14.67;;;3.77;;
4686;SDS011;2357;47.316;-1.348;2023-02-01T02:09:17;15.47;;;3.93;;
4686;SDS011;2357;47.316;-1.348;2023-02-01T02:11:43;8.57;;;4.33;;
4686;SDS011;2357;47.316;-1.348;2023-02-01T02:14:09;17.70;;;4.10;;
4686;SDS011;2357;47.316;-1.348;2023-02-01T02:42:09;16.20;;;4.53;;
4686;SDS011;2357;47.316;-1.348;2023-02-01T02:54:19;8.70;;;2.97;;
4686;SDS011;2357;47.316;-1.348;2023-02-01T02:56:52;10.13;;;3.10;;
4686;SDS011;2357;47.316;-1.348;2023-02-01T02:59:39;15.67;;;2.80;;
4686;SDS011;2357;47.316;-1.348;2023-02-01T03:02:26;9.93;;;2.90;;
4686;SDS011;2357;47.316;-1.348;2023-02-01T03:05:12;7.23;;;3.20;;
4686;SDS011;2357;47.316;-1.348;2023-02-01T03:10:32;11.47;;;3.20;;
4686;SDS011;2357;47.316;-1.348;2023-02-01T03:13:12;5.23;;;2.77;;
4686;SDS011;2357;47.316;-1.348;2023-02-01T03:18:13;8.93;;;2.57;;
4686;SDS011;2357;47.316;-1.348;2023-02-01T03:20:44;6.27;;;3.20;;
4686;SDS011;2357;47.316;-1.348;2023-02-01T03:23:15;15.30;;;4.33;;
4686;SDS011;2357;47.316;-1.348;2023-02-01T03:25:46;13.43;;;3.17;;
4686;SDS011;2357;47.316;-1.348;2023-02-01T03:28:15;8.87;;;2.90;;
4686;SDS011;2357;47.316;-1.348;2023-02-01T03:30:45;4.73;;;2.70;;
4686;SDS011;2357;47.316;-1.348;2023-02-01T03:33:13;7.73;;;3.73;;
4686;SDS011;2357;47.316;-1.348;2023-02-01T03:41:35;10.43;;;3.53;;
4686;SDS011;2357;47.316;-1.348;2023-02-01T03:44:09;6.87;;;2.13;;
4686;SDS011;2357;47.316;-1.348;2023-02-01T03:47:02;4.80;;;2.77;;
4686;SDS011;2357;47.316;-1.348;2023-02-01T03:49:30;12.03;;;2.80;;
4686;SDS011;2357;47.316;-1.348;2023-02-01T03:52:02;8.50;;;3.73;;
4686;SDS011;2357;47.316;-1.348;2023-02-01T03:54:33;4.27;;;2.50;;
4686;SDS011;2357;47.316;-1.348;2023-02-01T03:57:00;8.43;;;2.70;;
4686;SDS011;2357;47.316;-1.348;2023-02-01T03:59:30;5.63;;;2.97;;
4686;SDS011;2357;47.316;-1.348;2023-02-01T04:01:55;12.70;;;3.60;;
4686;SDS011;2357;47.316;-1.348;2023-02-01T04:04:21;4.77;;;2.40;;
4686;SDS011;2357;47.316;-1.348;2023-02-01T04:06:47;6.30;;;3.33;;
4686;SDS011;2357;47.316;-1.348;2023-02-01T04:09:14;8.53;;;3.20;;
4686;SDS011;2357;47.316;-1.348;2023-02-01T04:11:39;6.93;;;2.40;;
4686;SDS011;2357;47.316;-1.348;2023-02-01T04:14:05;8.90;;;3.07;;
4686;SDS011;2357;47.316;-1.348;2023-02-01T04:16:31;4.50;;;2.17;;
4686;SDS011;2357;47.316;-1.348;2023-02-01T04:18:57;14.70;;;3.27;;
4686;SDS011;2357;47.316;-1.348;2023-02-01T04:21:23;7.80;;;2.93;;
4686;SDS011;2357;47.316;-1.348;2023-02-01T04:23:50;5.03;;;2.70;;
4686;SDS011;2357;47.316;-1.348;2023-02-01T04:26:15;7.77;;;3.30;;
4686;SDS011;2357;47.316;-1.348;2023-02-01T04:28:41;6.20;;;2.90;;
4686;SDS011;2357;47.316;-1.348;2023-02-01T04:31:07;12.80;;;3.30;;
4686;SDS011;2357;47.316;-1.348;2023-02-01T04:33:33;12.47;;;3.87;;
4686;SDS011;2357;47.316;-1.348;2023-02-01T04:35:59;11.00;;;2.83;;
4686;SDS011;2357;47.316;-1.348;2023-02-01T04:38:24;3.93;;;2.43;;
4686;SDS011;2357;47.316;-1.348;2023-02-01T04:40:50;4.73;;;2.33;;
4686;SDS011;2357;47.316;-1.348;2023-02-01T04:43:16;10.00;;;2.90;;
4686;SDS011;2357;47.316;-1.348;2023-02-01T04:45:46;6.60;;;2.77;;
4686;SDS011;2357;47.316;-1.348;2023-02-01T04:48:18;4.80;;;2.00;;
4686;SDS011;2357;47.316;-1.348;2023-02-01T04:50:45;8.97;;;2.07;;
4686;SDS011;2357;47.316;-1.348;2023-02-01T04:53:13;7.93;;;2.37;;
4686;SDS011;2357;47.316;-1.348;2023-02-01T04:55:42;6.70;;;2.10;;
4686;SDS011;2357;47.316;-1.348;2023-02-01T04:58:08;7.33;;;2.03;;
4686;SDS011;2357;47.316;-1.348;2023-02-01T05:00:34;15.83;;;2.37;;
4686;SDS011;2357;47.316;-1.348;2023-02-01T05:03:01;9.67;;;2.30;;
4686;SDS011;2357;47.316;-1.348;2023-02-01T05:05:27;12.47;;;2.30;;
4686;SDS011;2357;47.316;-1.348;2023-02-01T05:07:53;14.00;;;2.00;;
4686;SDS011;2357;47.316;-1.348;2023-02-01T05:10:18;6.30;;;1.70;;
4686;SDS011;2357;47.316;-1.348;2023-02-01T05:12:44;9.77;;;2.90;;
4686;SDS011;2357;47.316;-1.348;2023-02-01T05:15:29;21.23;;;1.90;;
4686;SDS011;2357;47.316;-1.348;2023-02-01T05:17:55;4.27;;;1.90;;
4686;SDS011;2357;47.316;-1.348;2023-02-01T05:20:21;6.33;;;1.87;;
4686;SDS011;2357;47.316;-1.348;2023-02-01T05:22:47;3.73;;;2.00;;
4686;SDS011;2357;47.316;-1.348;2023-02-01T05:25:12;4.83;;;1.47;;
4686;SDS011;2357;47.316;-1.348;2023-02-01T05:27:38;13.70;;;3.27;;
4686;SDS011;2357;47.316;-1.348;2023-02-01T05:30:04;12.33;;;2.70;;
4686;SDS011;2357;47.316;-1.348;2023-02-01T05:32:31;19.37;;;2.60;;
4686;SDS011;2357;47.316;-1.348;2023-02-01T05:34:56;6.00;;;1.67;;
4686;SDS011;2357;47.316;-1.348;2023-02-01T05:37:22;10.13;;;2.10;;
4686;SDS011;2357;47.316;-1.348;2023-02-01T05:39:48;7.37;;;1.63;;
4686;SDS011;2357;47.316;-1.348;2023-02-01T05:42:13;7.73;;;2.00;;
4686;SDS011;2357;47.316;-1.348;2023-02-01T05:44:39;8.83;;;1.93;;
4686;SDS011;2357;47.316;-1.348;2023-02-01T05:47:05;13.77;;;2.77;;
4686;SDS011;2357;47.316;-1.348;2023-02-01T05:49:31;15.63;;;2.93;;
4686;SDS011;2357;47.316;-1.348;2023-02-01T05:51:56;12.87;;;3.40;;
4686;SDS011;2357;47.316;-1.348;2023-02-01T05:54:22;9.73;;;2.07;;
4686;SDS011;2357;47.316;-1.348;2023-02-01T05:56:48;3.07;;;1.40;;
4686;SDS011;2357;47.316;-1.348;2023-02-01T05:59:13;8.13;;;2.23;;
4686;SDS011;2357;47.316;-1.348;2023-02-01T06:01:39;11.87;;;2.10;;
4686;SDS011;2357;47.316;-1.348;2023-02-01T06:04:04;11.60;;;2.87;;
4686;SDS011;2357;47.316;-1.348;2023-02-01T06:06:30;8.50;;;2.83;;
4686;SDS011;2357;47.316;-1.348;2023-02-01T06:08:56;7.93;;;2.13;;
4686;SDS011;2357;47.316;-1.348;2023-02-01T06:11:21;8.63;;;1.87;;
4686;SDS011;2357;47.316;-1.348;2023-02-01T06:13:47;5.80;;;1.90;;
4686;SDS011;2357;47.316;-1.348;2023-02-01T06:16:13;7.13;;;2.33;;
4686;SDS011;2357;47.316;-1.348;2023-02-01T06:18:40;6.37;;;2.03;;
4686;SDS011;2357;47.316;-1.348;2023-02-01T06:21:06;8.70;;;2.30;;
4686;SDS011;2357;47.316;-1.348;2023-02-01T06:23:33;12.47;;;2.27;;
4686;SDS011;2357;47.316;-1.348;2023-02-01T06:26:00;10.40;;;2.53;;
4686;SDS011;2357;47.316;-1.348;2023-02-01T06:28:30;9.80;;;2.80;;
4686;SDS011;2357;47.316;-1.348;2023-02-01T06:30:57;15.40;;;2.90;;
4686;SDS011;2357;47.316;-1.348;2023-02-01T06:33:23;14.10;;;3.57;;
4686;SDS011;2357;47.316;-1.348;2023-02-01T06:35:56;14.60;;;2.33;;
4686;SDS011;2357;47.316;-1.348;2023-02-01T06:38:23;15.83;;;2.47;;
4686;SDS011;2357;47.316;-1.348;2023-02-01T06:40:52;10.77;;;2.63;;
4686;SDS011;2357;47.316;-1.348;2023-02-01T06:43:19;14.77;;;2.60;;
4686;SDS011;2357;47.316;-1.348;2023-02-01T06:45:45;8.30;;;1.60;;
4686;SDS011;2357;47.316;-1.348;2023-02-01T06:48:11;14.00;;;2.70;;
4686;SDS011;2357;47.316;-1.348;2023-02-01T06:50:37;11.03;;;2.50;;
4686;SDS011;2357;47.316;-1.348;2023-02-01T06:53:02;16.10;;;2.90;;
4686;SDS011;2357;47.316;-1.348;2023-02-01T06:55:28;9.97;;;2.00;;
4686;SDS011;2357;47.316;-1.348;2023-02-01T06:57:54;8.30;;;2.70;;
4686;SDS011;2357;47.316;-1.348;2023-02-01T07:00:21;10.50;;;3.60;;
4686;SDS011;2357;47.316;-1.348;2023-02-01T07:02:47;12.47;;;2.50;;
4686;SDS011;2357;47.316;-1.348;2023-02-01T07:05:13;21.63;;;2.90;;
4686;SDS011;2357;47.316;-1.348;2023-02-01T07:07:38;8.53;;;1.77;;
4686;SDS011;2357;47.316;-1.348;2023-02-01T07:10:04;7.00;;;2.73;;
4686;SDS011;2357;47.316;-1.348;2023-02-01T07:12:30;18.13;;;3.00;;
4686;SDS011;2357;47.316;-1.348;2023-02-01T07:14:55;19.03;;;2.33;;
4686;SDS011;2357;47.316;-1.348;2023-02-01T07:17:21;20.77;;;2.33;;
4686;SDS011;2357;47.316;-1.348;2023-02-01T07:19:47;16.10;;;2.30;;
4686;SDS011;2357;47.316;-1.348;2023-02-01T07:22:15;7.40;;;2.17;;
4686;SDS011;2357;47.316;-1.348;2023-02-01T07:24:41;14.37;;;2.40;;
4686;SDS011;2357;47.316;-1.348;2023-02-01T07:27:07;21.07;;;2.90;;
4686;SDS011;2357;47.316;-1.348;2023-02-01T07:29:33;15.60;;;2.90;;
4686;SDS011;2357;47.316;-1.348;2023-02-01T07:31:58;15.30;;;3.77;;
4686;SDS011;2357;47.316;-1.348;2023-02-01T07:34:25;25.73;;;6.17;;
4686;SDS011;2357;47.316;-1.348;2023-02-01T07:36:50;22.87;;;5.10;;
4686;SDS011;2357;47.316;-1.348;2023-02-01T07:39:16;11.40;;;3.43;;
4686;SDS011;2357;47.316;-1.348;2023-02-01T07:41:42;6.67;;;2.90;;
4686;SDS011;2357;47.316;-1.348;2023-02-01T07:44:07;9.90;;;3.10;;
4686;SDS011;2357;47.316;-1.348;2023-02-01T07:46:33;10.60;;;3.20;;
4686;SDS011;2357;47.316;-1.348;2023-02-01T07:48:59;10.57;;;3.07;;
4686;SDS011;2357;47.316;-1.348;2023-02-01T07:51:25;16.13;;;3.60;;
4686;SDS011;2357;47.316;-1.348;2023-02-01T07:53:50;26.50;;;3.23;;
4686;SDS011;2357;47.316;-1.348;2023-02-01T07:56:17;10.87;;;2.77;;
4686;SDS011;2357;47.316;-1.348;2023-02-01T07:58:47;21.87;;;3.00;;
4686;SDS011;2357;47.316;-1.348;2023-02-01T08:01:18;13.97;;;2.13;;
4686;SDS011;2357;47.316;-1.348;2023-02-01T08:03:46;9.03;;;1.93;;
4686;SDS011;2357;47.316;-1.348;2023-02-01T08:06:12;7.67;;;2.20;;
4686;SDS011;2357;47.316;-1.348;2023-02-01T08:08:38;9.70;;;2.67;;
4686;SDS011;2357;47.316;-1.348;2023-02-01T08:11:04;16.00;;;2.17;;
4686;SDS011;2357;47.316;-1.348;2023-02-01T08:13:32;6.60;;;1.73;;
4686;SDS011;2357;47.316;-1.348;2023-02-01T08:15:59;7.23;;;2.00;;
4686;SDS011;2357;47.316;-1.348;2023-02-01T08:18:25;16.73;;;1.97;;
4686;SDS011;2357;47.316;-1.348;2023-02-01T08:20:50;6.90;;;2.03;;
4686;SDS011;2357;47.316;-1.348;2023-02-01T08:23:16;10.47;;;2.40;;
4686;SDS011;2357;47.316;-1.348;2023-02-01T08:25:42;12.97;;;1.80;;
4686;SDS011;2357;47.316;-1.348;2023-02-01T08:28:08;9.30;;;2.00;;
4686;SDS011;2357;47.316;-1.348;2023-02-01T08:30:36;17.13;;;2.30;;
4686;SDS011;2357;47.316;-1.348;2023-02-01T08:33:03;11.47;;;2.17;;
4686;SDS011;2357;47.316;-1.348;2023-02-01T08:35:31;14.03;;;2.03;;
4686;SDS011;2357;47.316;-1.348;2023-02-01T08:38:00;10.67;;;2.30;;
4686;SDS011;2357;47.316;-1.348;2023-02-01T08:40:25;16.03;;;2.20;;
4686;SDS011;2357;47.316;-1.348;2023-02-01T08:42:51;25.07;;;2.43;;
4686;SDS011;2357;47.316;-1.348;2023-02-01T08:45:26;12.33;;;2.50;;
4686;SDS011;2357;47.316;-1.348;2023-02-01T08:47:57;12.73;;;2.87;;
4686;SDS011;2357;47.316;-1.348;2023-02-01T08:50:22;10.03;;;2.33;;
4686;SDS011;2357;47.316;-1.348;2023-02-01T08:52:49;8.47;;;2.13;;
4686;SDS011;2357;47.316;-1.348;2023-02-01T08:55:16;21.77;;;2.60;;
4686;SDS011;2357;47.316;-1.348;2023-02-01T08:57:42;21.83;;;3.20;;
4686;SDS011;2357;47.316;-1.348;2023-02-01T09:00:08;17.47;;;1.90;;
4686;SDS011;2357;47.316;-1.348;2023-02-01T09:02:36;6.77;;;2.10;;
4686;SDS011;2357;47.316;-1.348;2023-02-01T09:05:02;9.53;;;1.97;;
4686;SDS011;2357;47.316;-1.348;2023-02-01T09:07:28;11.23;;;2.80;;
4686;SDS011;2357;47.316;-1.348;2023-02-01T09:09:54;8.70;;;2.50;;
4686;SDS011;2357;47.316;-1.348;2023-02-01T09:12:21;13.17;;;2.70;;
4686;SDS011;2357;47.316;-1.348;2023-02-01T09:14:47;17.60;;;3.20;;
4686;SDS011;2357;47.316;-1.348;2023-02-01T09:17:13;10.70;;;3.20;;
4686;SDS011;2357;47.316;-1.348;2023-02-01T09:19:39;12.10;;;4.00;;
4686;SDS011;2357;47.316;-1.348;2023-02-01T09:22:05;11.77;;;2.43;;
4686;SDS011;2357;47.316;-1.348;2023-02-01T09:24:30;9.67;;;3.50;;
4686;SDS011;2357;47.316;-1.348;2023-02-01T09:26:56;16.10;;;2.50;;
4686;SDS011;2357;47.316;-1.348;2023-02-01T09:29:22;11.97;;;2.10;;
4686;SDS011;2357;47.316;-1.348;2023-02-01T09:31:47;10.50;;;2.00;;
4686;SDS011;2357;47.316;-1.348;2023-02-01T09:34:13;11.63;;;1.90;;
4686;SDS011;2357;47.316;-1.348;2023-02-01T09:36:39;14.30;;;2.43;;
4686;SDS011;2357;47.316;-1.348;2023-02-01T09:39:04;20.20;;;2.97;;
4686;SDS011;2357;47.316;-1.348;2023-02-01T09:41:51;16.13;;;2.10;;
4686;SDS011;2357;47.316;-1.348;2023-02-01T09:47:22;11.40;;;2.33;;
4686;SDS011;2357;47.316;-1.348;2023-02-01T09:50:06;14.17;;;4.00;;
4686;SDS011;2357;47.316;-1.348;2023-02-01T09:52:58;14.73;;;1.87;;
4686;SDS011;2357;47.316;-1.348;2023-02-01T09:58:07;11.73;;;2.30;;
4686;SDS011;2357;47.316;-1.348;2023-02-01T10:00:39;11.57;;;2.93;;
4686;SDS011;2357;47.316;-1.348;2023-02-01T10:03:15;18.30;;;2.30;;
4686;SDS011;2357;47.316;-1.348;2023-02-01T10:11:19;12.03;;;2.50;;
4686;SDS011;2357;47.316;-1.348;2023-02-01T10:19:55;17.60;;;2.90;;
4686;SDS011;2357;47.316;-1.348;2023-02-01T10:25:24;18.33;;;2.27;;
4686;SDS011;2357;47.316;-1.348;2023-02-01T10:27:53;10.07;;;2.27;;
4686;SDS011;2357;47.316;-1.348;2023-02-01T10:30:20;19.33;;;3.83;;
4686;SDS011;2357;47.316;-1.348;2023-02-01T10:33:02;15.60;;;3.20;;
4686;SDS011;2357;47.316;-1.348;2023-02-01T10:35:54;11.07;;;2.77;;
4686;SDS011;2357;47.316;-1.348;2023-02-01T10:38:28;18.37;;;3.77;;
4686;SDS011;2357;47.316;-1.348;2023-02-01T10:40:56;7.63;;;2.90;;
4686;SDS011;2357;47.316;-1.348;2023-02-01T10:43:35;26.13;;;4.77;;
4686;SDS011;2357;47.316;-1.348;2023-02-01T10:46:01;15.10;;;2.40;;
4686;SDS011;2357;47.316;-1.348;2023-02-01T10:48:26;9.20;;;2.23;;
4686;SDS011;2357;47.316;-1.348;2023-02-01T10:54:03;12.77;;;2.60;;
4686;SDS011;2357;47.316;-1.348;2023-02-01T10:56:34;14.73;;;2.13;;
4686;SDS011;2357;47.316;-1.348;2023-02-01T10:59:04;16.10;;;3.50;;
4686;SDS011;2357;47.316;-1.348;2023-02-01T11:01:33;32.60;;;4.10;;
4686;SDS011;2357;47.316;-1.348;2023-02-01T11:04:03;18.03;;;2.23;;
4686;SDS011;2357;47.316;-1.348;2023-02-01T11:06:31;15.00;;;2.23;;
4686;SDS011;2357;47.316;-1.348;2023-02-01T11:09:41;9.47;;;2.13;;
4686;SDS011;2357;47.316;-1.348;2023-02-01T11:16:51;17.23;;;2.33;;
4686;SDS011;2357;47.316;-1.348;2023-02-01T11:19:19;12.90;;;2.30;;
4686;SDS011;2357;47.316;-1.348;2023-02-01T11:21:45;18.33;;;2.40;;
4686;SDS011;2357;47.316;-1.348;2023-02-01T11:24:19;16.43;;;3.60;;
4686;SDS011;2357;47.316;-1.348;2023-02-01T11:26:53;14.83;;;2.47;;
4686;SDS011;2357;47.316;-1.348;2023-02-01T11:29:21;12.30;;;3.17;;
4686;SDS011;2357;47.316;-1.348;2023-02-01T11:31:53;10.17;;;2.13;;
4686;SDS011;2357;47.316;-1.348;2023-02-01T11:34:25;9.93;;;1.87;;
4686;SDS011;2357;47.316;-1.348;2023-02-01T11:36:53;11.57;;;3.10;;
4686;SDS011;2357;47.316;-1.348;2023-02-01T11:39:28;15.37;;;2.23;;
4686;SDS011;2357;47.316;-1.348;2023-02-01T11:42:05;15.67;;;3.20;;
4686;SDS011;2357;47.316;-1.348;2023-02-01T11:44:40;8.80;;;3.00;;
4686;SDS011;2357;47.316;-1.348;2023-02-01T11:49:47;8.73;;;2.30;;
4686;SDS011;2357;47.316;-1.348;2023-02-01T12:02:55;13.23;;;2.60;;
4686;SDS011;2357;47.316;-1.348;2023-02-01T12:17:16;16.57;;;2.67;;
4686;SDS011;2357;47.316;-1.348;2023-02-01T12:19:55;13.97;;;2.80;;
4686;SDS011;2357;47.316;-1.348;2023-02-01T12:28:04;13.23;;;2.50;;
4686;SDS011;2357;47.316;-1.348;2023-02-01T12:34:03;17.60;;;3.27;;
4686;SDS011;2357;47.316;-1.348;2023-02-01T12:36:43;27.87;;;3.20;;
4686;SDS011;2357;47.316;-1.348;2023-02-01T12:39:26;9.37;;;2.73;;
4686;SDS011;2357;47.316;-1.348;2023-02-01T12:42:00;13.10;;;2.60;;
4686;SDS011;2357;47.316;-1.348;2023-02-01T12:52:32;13.27;;;2.63;;
4686;SDS011;2357;47.316;-1.348;2023-02-01T12:58:06;15.80;;;2.87;;
4686;SDS011;2357;47.316;-1.348;2023-02-01T13:00:43;10.77;;;2.43;;
4686;SDS011;2357;47.316;-1.348;2023-02-01T13:06:09;17.33;;;2.23;;
4686;SDS011;2357;47.316;-1.348;2023-02-01T13:08:45;14.10;;;2.10;;
4686;SDS011;2357;47.316;-1.348;2023-02-01T13:11:45;18.80;;;3.40;;
4686;SDS011;2357;47.316;-1.348;2023-02-01T13:17:25;20.00;;;2.53;;
4686;SDS011;2357;47.316;-1.348;2023-02-01T13:22:51;17.60;;;3.00;;
4686;SDS011;2357;47.316;-1.348;2023-02-01T13:25:29;13.23;;;3.93;;
4686;SDS011;2357;47.316;-1.348;2023-02-01T13:28:02;15.50;;;2.50;;
4686;SDS011;2357;47.316;-1.348;2023-02-01T13:30:47;22.07;;;2.53;;
4686;SDS011;2357;47.316;-1.348;2023-02-01T13:41:41;12.77;;;2.27;;
4686;SDS011;2357;47.316;-1.348;2023-02-01T13:44:10;9.00;;;2.50;;
4686;SDS011;2357;47.316;-1.348;2023-02-01T13:46:45;14.53;;;3.13;;
4686;SDS011;2357;47.316;-1.348;2023-02-01T13:49:18;9.63;;;2.40;;
4686;SDS011;2357;47.316;-1.348;2023-02-01T13:51:48;9.10;;;2.33;;
4686;SDS011;2357;47.316;-1.348;2023-02-01T13:54:49;18.70;;;2.80;;
4686;SDS011;2357;47.316;-1.348;2023-02-01T13:57:30;10.07;;;1.87;;
4686;SDS011;2357;47.316;-1.348;2023-02-01T14:00:22;18.87;;;2.30;;
4686;SDS011;2357;47.316;-1.348;2023-02-01T14:13:51;14.03;;;1.73;;
4686;SDS011;2357;47.316;-1.348;2023-02-01T14:26:19;10.00;;;2.57;;
4686;SDS011;2357;47.316;-1.348;2023-02-01T14:31:35;10.53;;;2.53;;
4686;SDS011;2357;47.316;-1.348;2023-02-01T14:34:13;13.93;;;2.70;;
4686;SDS011;2357;47.316;-1.348;2023-02-01T14:36:49;14.27;;;2.30;;
4686;SDS011;2357;47.316;-1.348;2023-02-01T14:41:56;15.40;;;2.30;;
4686;SDS011;2357;47.316;-1.348;2023-02-01T14:44:32;10.90;;;2.40;;
4686;SDS011;2357;47.316;-1.348;2023-02-01T14:49:35;11.80;;;2.30;;
4686;SDS011;2357;47.316;-1.348;2023-02-01T14:52:45;11.83;;;3.03;;
4686;SDS011;2357;47.316;-1.348;2023-02-01T14:57:43;19.70;;;3.50;;
4686;SDS011;2357;47.316;-1.348;2023-02-01T15:00:16;7.93;;;2.30;;
4686;SDS011;2357;47.316;-1.348;2023-02-01T15:02:47;13.53;;;3.20;;
4686;SDS011;2357;47.316;-1.348;2023-02-01T15:07:54;18.87;;;2.10;;
4686;SDS011;2357;47.316;-1.348;2023-02-01T15:10:21;10.60;;;2.57;;
4686;SDS011;2357;47.316;-1.348;2023-02-01T15:12:48;18.63;;;2.40;;
4686;SDS011;2357;47.316;-1.348;2023-02-01T15:17:57;14.30;;;2.40;;
4686;SDS011;2357;47.316;-1.348;2023-02-01T15:20:29;14.33;;;2.07;;
4686;SDS011;2357;47.316;-1.348;2023-02-01T15:23:05;12.57;;;2.00;;
4686;SDS011;2357;47.316;-1.348;2023-02-01T15:25:40;18.17;;;2.40;;
4686;SDS011;2357;47.316;-1.348;2023-02-01T15:28:14;14.57;;;3.17;;
4686;SDS011;2357;47.316;-1.348;2023-02-01T15:30:51;8.30;;;2.50;;
4686;SDS011;2357;47.316;-1.348;2023-02-01T15:33:21;14.90;;;2.00;;
4686;SDS011;2357;47.316;-1.348;2023-02-01T15:41:31;21.63;;;3.07;;
4686;SDS011;2357;47.316;-1.348;2023-02-01T15:46:14;7.70;;;1.97;;
4686;SDS011;2357;47.316;-1.348;2023-02-01T15:48:46;16.90;;;2.60;;
4686;SDS011;2357;47.316;-1.348;2023-02-01T15:51:19;13.47;;;2.83;;
4686;SDS011;2357;47.316;-1.348;2023-02-01T15:53:57;24.70;;;3.53;;
4686;SDS011;2357;47.316;-1.348;2023-02-01T15:56:36;11.57;;;3.70;;
4686;SDS011;2357;47.316;-1.348;2023-02-01T15:59:17;11.20;;;2.60;;
4686;SDS011;2357;47.316;-1.348;2023-02-01T16:01:49;14.13;;;2.80;;
4686;SDS011;2357;47.316;-1.348;2023-02-01T16:07:00;18.47;;;4.20;;
4686;SDS011;2357;47.316;-1.348;2023-02-01T16:09:39;11.03;;;3.90;;
4686;SDS011;2357;47.316;-1.348;2023-02-01T16:14:59;17.53;;;3.67;;
4686;SDS011;2357;47.316;-1.348;2023-02-01T16:17:25;12.77;;;2.87;;
4686;SDS011;2357;47.316;-1.348;2023-02-01T16:19:51;14.20;;;3.33;;
4686;SDS011;2357;47.316;-1.348;2023-02-01T16:22:17;11.33;;;3.00;;
4686;SDS011;2357;47.316;-1.348;2023-02-01T16:24:43;8.60;;;3.53;;
4686;SDS011;2357;47.316;-1.348;2023-02-01T16:27:08;24.07;;;3.30;;
4686;SDS011;2357;47.316;-1.348;2023-02-01T16:29:34;12.43;;;3.03;;
4686;SDS011;2357;47.316;-1.348;2023-02-01T16:31:59;9.13;;;3.20;;
4686;SDS011;2357;47.316;-1.348;2023-02-01T16:34:25;11.80;;;2.77;;
4686;SDS011;2357;47.316;-1.348;2023-02-01T16:36:51;22.33;;;4.77;;
4686;SDS011;2357;47.316;-1.348;2023-02-01T16:39:19;15.73;;;4.13;;
4686;SDS011;2357;47.316;-1.348;2023-02-01T16:41:45;12.40;;;2.80;;
4686;SDS011;2357;47.316;-1.348;2023-02-01T16:44:11;11.67;;;3.13;;
4686;SDS011;2357;47.316;-1.348;2023-02-01T16:46:39;20.00;;;3.20;;
4686;SDS011;2357;47.316;-1.348;2023-02-01T16:49:20;20.97;;;3.70;;
4686;SDS011;2357;47.316;-1.348;2023-02-01T16:51:48;20.23;;;2.67;;
4686;SDS011;2357;47.316;-1.348;2023-02-01T16:54:15;13.80;;;2.80;;
4686;SDS011;2357;47.316;-1.348;2023-02-01T16:56:41;12.60;;;3.10;;
4686;SDS011;2357;47.316;-1.348;2023-02-01T16:59:08;8.37;;;2.20;;
4686;SDS011;2357;47.316;-1.348;2023-02-01T17:01:34;15.20;;;4.33;;
4686;SDS011;2357;47.316;-1.348;2023-02-01T17:04:02;12.07;;;3.27;;
4686;SDS011;2357;47.316;-1.348;2023-02-01T17:06:28;10.70;;;2.20;;
4686;SDS011;2357;47.316;-1.348;2023-02-01T17:08:57;17.00;;;2.90;;
4686;SDS011;2357;47.316;-1.348;2023-02-01T17:11:24;25.87;;;4.40;;
4686;SDS011;2357;47.316;-1.348;2023-02-01T17:13:50;18.87;;;3.40;;
4686;SDS011;2357;47.316;-1.348;2023-02-01T17:16:24;27.03;;;3.00;;
4686;SDS011;2357;47.316;-1.348;2023-02-01T17:18:56;14.97;;;3.33;;
4686;SDS011;2357;47.316;-1.348;2023-02-01T17:21:41;16.13;;;2.40;;
4686;SDS011;2357;47.316;-1.348;2023-02-01T17:24:11;10.97;;;3.03;;
4686;SDS011;2357;47.316;-1.348;2023-02-01T17:26:39;18.47;;;3.40;;
4686;SDS011;2357;47.316;-1.348;2023-02-01T17:29:05;17.17;;;2.10;;
4686;SDS011;2357;47.316;-1.348;2023-02-01T17:31:30;14.77;;;3.23;;
4686;SDS011;2357;47.316;-1.348;2023-02-01T17:34:01;16.13;;;3.03;;
4686;SDS011;2357;47.316;-1.348;2023-02-01T17:36:27;16.40;;;2.73;;
4686;SDS011;2357;47.316;-1.348;2023-02-01T17:38:52;12.10;;;2.73;;
4686;SDS011;2357;47.316;-1.348;2023-02-01T17:41:18;28.07;;;3.50;;
4686;SDS011;2357;47.316;-1.348;2023-02-01T17:43:44;20.43;;;3.43;;
4686;SDS011;2357;47.316;-1.348;2023-02-01T17:46:11;16.00;;;3.73;;
4686;SDS011;2357;47.316;-1.348;2023-02-01T17:48:37;12.00;;;2.90;;
4686;SDS011;2357;47.316;-1.348;2023-02-01T17:51:03;10.03;;;2.50;;
4686;SDS011;2357;47.316;-1.348;2023-02-01T17:53:30;14.43;;;3.57;;
4686;SDS011;2357;47.316;-1.348;2023-02-01T17:55:57;13.70;;;2.37;;
4686;SDS011;2357;47.316;-1.348;2023-02-01T17:58:23;15.90;;;3.23;;
4686;SDS011;2357;47.316;-1.348;2023-02-01T18:00:50;12.23;;;2.80;;
4686;SDS011;2357;47.316;-1.348;2023-02-01T18:03:27;9.33;;;2.63;;
4686;SDS011;2357;47.316;-1.348;2023-02-01T18:05:56;12.67;;;3.87;;
4686;SDS011;2357;47.316;-1.348;2023-02-01T18:08:23;12.80;;;2.67;;
4686;SDS011;2357;47.316;-1.348;2023-02-01T18:10:51;10.37;;;3.63;;
4686;SDS011;2357;47.316;-1.348;2023-02-01T18:13:24;15.17;;;3.03;;